createdAt,value
2022-08-10T00:01:52.266Z,102000.09
2022-08-10T00:04:21.426Z,102014.16
2022-08-10T00:06:48.902Z,102008.00
2022-08-10T00:09:15.372Z,102014.22
2022-08-10T00:11:41.888Z,102004.50
2022-08-10T00:14:08.381Z,102014.16
2022-08-10T00:16:34.914Z,102006.22
2022-08-10T00:19:01.438Z,102009.81
2022-08-10T00:21:27.921Z,102002.75
2022-08-10T00:23:54.351Z,102009.78
2022-08-10T00:26:20.842Z,102007.22
2022-08-10T00:28:48.726Z,102011.63
2022-08-10T00:31:15.310Z,101997.59
2022-08-10T00:33:41.874Z,102008.09
2022-08-10T00:36:08.675Z,101991.44
2022-08-10T00:38:37.095Z,102008.13
2022-08-10T00:41:04.160Z,102000.16
2022-08-10T00:43:30.729Z,102001.91
2022-08-10T00:45:59.274Z,101994.91
2022-08-10T00:48:29.024Z,101994.94
2022-08-10T00:50:56.006Z,102002.88
2022-08-10T00:53:22.525Z,101992.34
2022-08-10T00:57:12.463Z,101985.28
2022-08-10T00:58:38.430Z,101990.59
2022-08-10T01:01:06.241Z,101992.34
2022-08-10T01:04:58.715Z,101986.19
2022-08-10T01:06:35.210Z,101994.06
2022-08-10T01:09:35.171Z,101986.16
2022-08-10T01:12:40.981Z,101987.06
2022-08-10T01:15:18.960Z,101972.13
2022-08-10T01:18:10.621Z,101982.69
2022-08-10T01:21:32.905Z,101976.50
2022-08-10T01:24:14.406Z,101974.75
2022-08-10T01:27:13.546Z,101973.88
2022-08-10T01:29:58.297Z,101969.47
2022-08-10T01:32:32.660Z,101973.00
2022-08-10T01:35:08.917Z,101971.28
2022-08-10T01:37:43.778Z,101965.97
2022-08-10T01:40:25.055Z,101969.47
2022-08-10T01:42:54.399Z,101963.31
2022-08-10T01:45:24.393Z,101951.91
2022-08-10T01:48:16.379Z,101954.56
2022-08-10T01:50:59.600Z,101948.41
2022-08-10T01:53:41.113Z,101951.91
2022-08-10T01:56:10.254Z,101957.19
2022-08-10T01:58:38.236Z,101963.34
2022-08-10T02:01:07.808Z,101958.94
2022-08-10T02:04:05.302Z,101955.41
2022-08-10T02:06:26.701Z,101954.56
2022-08-10T02:09:00.322Z,101945.75
2022-08-10T02:12:05.982Z,101946.63
2022-08-10T02:14:21.997Z,101951.03
2022-08-10T02:16:51.365Z,101950.13
2022-08-10T02:19:21.823Z,101948.38
2022-08-10T02:22:09.502Z,101946.63
2022-08-10T02:24:40.886Z,101955.41
2022-08-10T02:27:08.389Z,101939.59
2022-08-10T02:29:36.536Z,101953.63
2022-08-10T02:32:05.185Z,101961.53
2022-08-10T02:34:34.875Z,101960.66
2022-08-10T02:37:10.678Z,101965.91
2022-08-10T02:39:37.597Z,101956.25
2022-08-10T02:45:12.825Z,101971.19
2022-08-10T02:45:20.718Z,101967.50
2022-08-10T02:48:00.205Z,101967.56
2022-08-10T02:50:29.865Z,101977.22
2022-08-10T02:53:08.215Z,101977.19
2022-08-10T02:56:02.920Z,101975.41
2022-08-10T02:58:37.966Z,101978.09
2022-08-10T03:01:10.498Z,101967.53
2022-08-10T03:04:07.567Z,101971.06
2022-08-10T03:06:38.733Z,101965.81
2022-08-10T03:09:08.785Z,101964.00
2022-08-10T03:12:35.464Z,101964.03
2022-08-10T03:14:25.583Z,101966.59
2022-08-10T03:16:54.908Z,101965.69
2022-08-10T03:20:35.902Z,101964.78
2022-08-10T03:22:10.786Z,101949.75
2022-08-10T03:24:38.760Z,101970.84
2022-08-10T03:27:05.778Z,101972.59
2022-08-10T03:30:23.216Z,101965.56
2022-08-10T03:32:20.831Z,101965.63
2022-08-10T03:34:48.127Z,101971.78
2022-08-10T03:37:14.694Z,101974.41
2022-08-10T03:39:41.247Z,101962.13
2022-08-10T03:42:12.755Z,101962.94
2022-08-10T03:44:41.953Z,101969.09
2022-08-10T03:47:16.142Z,101965.53
2022-08-10T03:49:44.782Z,101967.25
2022-08-10T03:52:12.219Z,101970.78
2022-08-10T03:54:39.483Z,101963.66
2022-08-10T03:57:06.369Z,101969.88
2022-08-10T03:59:33.197Z,101974.25
2022-08-10T04:02:43.692Z,101973.41
2022-08-10T04:04:48.001Z,101966.31
2022-08-10T04:07:15.047Z,101965.44
2022-08-10T04:09:53.220Z,101973.22
2022-08-10T04:12:21.721Z,101973.25
2022-08-10T04:14:50.125Z,101969.75
2022-08-10T04:18:03.362Z,101972.31
2022-08-10T04:20:07.967Z,101974.03
2022-08-10T04:22:36.588Z,101969.59
2022-08-10T04:25:05.166Z,101974.81
2022-08-10T04:27:32.048Z,101968.59
2022-08-10T04:29:58.607Z,101964.28
2022-08-10T04:32:28.277Z,101972.16
2022-08-10T04:34:57.584Z,101977.34
2022-08-10T04:37:25.564Z,101970.50
2022-08-10T04:39:52.266Z,101965.25
2022-08-10T04:42:19.065Z,101960.06
2022-08-10T04:44:45.603Z,101969.69
2022-08-10T04:47:12.090Z,101974.13
2022-08-10T04:49:55.049Z,101970.50
2022-08-10T04:52:22.671Z,101968.53
2022-08-10T04:54:51.924Z,101973.91
2022-08-10T04:57:18.435Z,101965.13
2022-08-10T04:59:44.919Z,101974.94
2022-08-10T05:02:30.798Z,101973.19
2022-08-10T05:04:58.197Z,101965.31
2022-08-10T05:07:24.743Z,101968.03
2022-08-10T05:10:04.694Z,101981.22
2022-08-10T05:12:35.975Z,101977.53
2022-08-10T05:15:08.255Z,101979.44
2022-08-10T05:17:36.483Z,101985.53
2022-08-10T05:20:08.259Z,101982.13
2022-08-10T05:22:41.112Z,101988.38
2022-08-10T05:25:13.400Z,101984.06
2022-08-10T05:27:41.176Z,101983.13
2022-08-10T05:30:10.010Z,101976.13
2022-08-10T05:32:56.411Z,101973.47
2022-08-10T05:35:24.608Z,101985.00
2022-08-10T05:38:09.422Z,101979.00
2022-08-10T05:40:40.964Z,101982.59
2022-08-10T05:43:09.602Z,101976.47
2022-08-10T05:46:19.567Z,101990.50
2022-08-10T05:48:41.853Z,101981.72
2022-08-10T05:51:10.951Z,101986.16
2022-08-10T05:54:03.063Z,101980.88
2022-08-10T05:56:26.043Z,101986.16
2022-08-10T05:58:52.865Z,101980.03
2022-08-10T06:01:25.047Z,101986.16
2022-08-10T06:03:58.605Z,101983.53
2022-08-10T06:06:29.941Z,101988.84
2022-08-10T06:08:57.582Z,102000.25
2022-08-10T06:12:26.713Z,102002.84
2022-08-10T06:14:32.442Z,101996.72
2022-08-10T06:17:01.139Z,102002.78
2022-08-10T06:19:29.306Z,101991.38
2022-08-10T06:22:01.269Z,101997.53
2022-08-10T06:24:33.979Z,101998.31
2022-08-10T06:27:00.469Z,101999.06
2022-08-10T06:29:29.625Z,102005.22
2022-08-10T06:31:59.243Z,102006.91
2022-08-10T06:34:49.554Z,102001.59
2022-08-10T06:37:20.545Z,102011.16
2022-08-10T06:39:47.270Z,102012.00
2022-08-10T06:42:18.540Z,102011.81
2022-08-10T06:45:14.650Z,102019.72
2022-08-10T06:47:59.591Z,102017.97
2022-08-10T06:50:55.932Z,102009.03
2022-08-10T06:53:53.683Z,102010.75
2022-08-10T06:56:38.134Z,102015.09
2022-08-10T06:59:14.574Z,102009.00
2022-08-10T07:01:57.496Z,102012.31
2022-08-10T07:04:34.263Z,102008.75
2022-08-10T07:07:03.899Z,102011.16
2022-08-10T07:09:33.346Z,102008.31
2022-08-10T07:12:07.761Z,102010.19
2022-08-10T07:14:44.925Z,102006.16
2022-08-10T07:17:19.033Z,102004.50
2022-08-10T07:19:50.444Z,102006.88
2022-08-10T07:23:00.482Z,102003.72
2022-08-10T07:25:08.149Z,102001.66
2022-08-10T07:27:58.218Z,101995.44
2022-08-10T07:30:22.281Z,101999.72
2022-08-10T07:32:51.444Z,101988.09
2022-08-10T07:35:21.322Z,101990.53
2022-08-10T07:37:51.063Z,102001.50
2022-08-10T07:40:20.171Z,101998.03
2022-08-10T07:42:56.150Z,102000.56
2022-08-10T07:45:22.779Z,101998.19
2022-08-10T07:47:55.152Z,102003.63
2022-08-10T07:50:24.823Z,102008.31
2022-08-10T07:52:53.392Z,102009.09
2022-08-10T07:56:01.729Z,102008.13
2022-08-10T07:58:09.401Z,102013.72
2022-08-10T08:00:37.195Z,102011.16
2022-08-10T08:03:07.246Z,102010.03
2022-08-10T08:05:58.125Z,102006.28
2022-08-10T08:08:22.523Z,102020.06
2022-08-10T08:10:50.444Z,102011.13
2022-08-10T08:13:20.591Z,102004.00
2022-08-10T08:16:17.255Z,102012.94
2022-08-10T08:18:37.509Z,102013.34
2022-08-10T08:24:02.540Z,102014.50
2022-08-10T08:24:14.598Z,102011.50
2022-08-10T08:26:41.065Z,102007.03
2022-08-10T08:29:10.785Z,102004.47
2022-08-10T08:31:57.039Z,102004.19
2022-08-10T08:34:25.322Z,101999.31
2022-08-10T08:36:59.224Z,102006.19
2022-08-10T08:39:32.094Z,101995.47
2022-08-10T08:42:26.613Z,102002.84
2022-08-10T08:45:21.967Z,101986.16
2022-08-10T08:48:43.135Z,101996.91
2022-08-10T08:52:06.165Z,101990.22
2022-08-10T08:54:41.054Z,101981.50
2022-08-10T08:57:50.745Z,101982.00
2022-08-10T09:01:23.108Z,101991.53
2022-08-10T09:04:28.918Z,101980.22
2022-08-10T09:08:00.769Z,101992.75
2022-08-10T09:10:17.106Z,101981.09
2022-08-10T09:12:51.521Z,101982.44
2022-08-10T09:15:40.898Z,101975.63
2022-08-10T09:18:20.752Z,101973.16
2022-08-10T09:20:53.822Z,101969.91
2022-08-10T09:25:54.672Z,101973.69
2022-08-10T09:28:31.989Z,101975.25
2022-08-10T09:36:24.756Z,101980.03
2022-08-10T09:38:02.483Z,101979.00
2022-08-10T09:41:09.193Z,101965.91
2022-08-10T09:43:42.659Z,101959.84
2022-08-10T09:46:34.371Z,101958.19
2022-08-10T09:49:53.939Z,101961.88
2022-08-10T09:52:32.190Z,101945.00
2022-08-10T09:55:23.964Z,101945.03
2022-08-10T09:58:35.145Z,101947.31
2022-08-10T10:02:03.956Z,101953.19
2022-08-10T10:04:54.253Z,101947.84
2022-08-10T10:07:26.778Z,101940.47
2022-08-10T10:10:14.647Z,101936.25
2022-08-10T10:12:59.127Z,101933.41
2022-08-10T10:15:48.276Z,101931.22
2022-08-10T10:18:30.085Z,101926.94
2022-08-10T10:21:55.452Z,101939.31
2022-08-10T10:24:34.323Z,101924.50
2022-08-10T10:27:16.633Z,101924.78
2022-08-10T10:29:58.440Z,101927.22
2022-08-10T10:32:34.821Z,101919.13
2022-08-10T10:35:15.315Z,101920.47
2022-08-10T10:38:01.861Z,101908.03
2022-08-10T10:40:42.156Z,101910.06
2022-08-10T10:43:14.562Z,101913.28
2022-08-10T10:46:02.568Z,101919.16
2022-08-10T10:48:39.894Z,101915.34
2022-08-10T10:51:33.063Z,101898.66
2022-08-10T10:54:36.865Z,101915.03
2022-08-10T10:57:58.734Z,101908.56
2022-08-10T11:00:18.195Z,101900.34
2022-08-10T11:03:32.109Z,101899.38
2022-08-10T11:06:50.886Z,101905.06
2022-08-10T11:10:03.239Z,101897.69
2022-08-10T11:12:50.953Z,101903.22
2022-08-10T11:15:47.646Z,101897.66
2022-08-10T11:18:35.488Z,101895.97
2022-08-10T11:21:45.567Z,101901.13
2022-08-10T11:24:48.017Z,101897.13
2022-08-10T11:27:21.643Z,101902.63
2022-08-10T11:30:00.614Z,101896.34
2022-08-10T11:32:42.966Z,101885.94
2022-08-10T11:35:27.902Z,101891.19
2022-08-10T11:38:47.442Z,101891.59
2022-08-10T11:42:07.823Z,101882.16
2022-08-10T11:44:55.265Z,101869.19
2022-08-10T11:47:46.388Z,101873.41
2022-08-10T11:50:28.457Z,101870.91
2022-08-10T11:53:23.051Z,101868.19
2022-08-10T11:55:56.063Z,101864.03
2022-08-10T11:58:45.353Z,101857.09
2022-08-10T12:01:15.444Z,101845.50
2022-08-10T12:03:44.516Z,101847.91
2022-08-10T12:06:13.625Z,101852.31
2022-08-10T12:10:05.134Z,101854.56
2022-08-10T12:11:34.130Z,101848.88
2022-08-10T12:14:22.834Z,101836.53
2022-08-10T12:16:59.768Z,101843.19
2022-08-10T12:20:02.635Z,101840.31
2022-08-10T12:22:36.226Z,101834.16
2022-08-10T12:25:09.248Z,101845.50
2022-08-10T12:27:48.731Z,101846.31
2022-08-10T12:30:16.756Z,101843.66
2022-08-10T12:33:01.618Z,101837.59
2022-08-10T12:36:14.787Z,101827.88
2022-08-10T12:38:57.292Z,101832.66
2022-08-10T12:41:43.765Z,101833.38
2022-08-10T12:44:42.839Z,101820.31
2022-08-10T12:47:30.870Z,101823.84
2022-08-10T12:50:31.559Z,101821.50
2022-08-10T12:53:32.733Z,101820.38
2022-08-10T12:56:01.693Z,101814.31
2022-08-10T12:58:58.965Z,101819.88
2022-08-10T13:01:17.842Z,101802.69
2022-08-10T13:04:23.348Z,101806.75
2022-08-10T13:06:47.655Z,101794.00
2022-08-10T13:09:15.939Z,101795.63
2022-08-10T13:12:38.989Z,101783.50
2022-08-10T13:14:53.208Z,101784.63
2022-08-10T13:17:39.832Z,101783.44
2022-08-10T13:20:17.217Z,101777.00
2022-08-10T13:22:48.527Z,101777.00
2022-08-10T13:25:22.491Z,101762.25
2022-08-10T13:28:03.114Z,101771.88
2022-08-10T13:30:40.940Z,101766.69
2022-08-10T13:33:10.787Z,101772.22
2022-08-10T13:35:38.244Z,101769.53
2022-08-10T13:38:07.108Z,101757.72
2022-08-10T13:40:34.765Z,101752.34
2022-08-10T13:43:05.900Z,101754.06
2022-08-10T13:45:33.782Z,101747.97
2022-08-10T13:48:22.194Z,101738.44
2022-08-10T13:50:51.815Z,101748.91
2022-08-10T13:53:20.226Z,101743.78
2022-08-10T13:55:55.248Z,101730.63
2022-08-10T13:58:37.056Z,101736.19
2022-08-10T14:01:12.607Z,101733.19
2022-08-10T14:03:42.342Z,101734.09
2022-08-10T14:06:29.615Z,101733.72
2022-08-10T14:09:05.827Z,101721.88
2022-08-10T14:11:33.969Z,101726.91
2022-08-10T14:14:16.579Z,101719.56
2022-08-10T14:16:44.777Z,101723.22
2022-08-10T14:19:22.270Z,101726.84
2022-08-10T14:21:49.108Z,101710.88
2022-08-10T14:24:26.292Z,101725.88
2022-08-10T14:27:04.920Z,101720.44
2022-08-10T14:29:38.178Z,101715.78
2022-08-10T14:32:08.722Z,101706.78
2022-08-10T14:36:16.226Z,101699.03
2022-08-10T14:37:42.638Z,101700.13
2022-08-10T14:40:22.105Z,101707.34
2022-08-10T14:42:51.526Z,101709.59
2022-08-10T14:45:24.823Z,101705.44
2022-08-10T14:48:00.833Z,101707.59
2022-08-10T14:50:32.123Z,101702.06
2022-08-10T14:53:05.645Z,101697.72
2022-08-10T14:55:59.121Z,101693.72
2022-08-10T14:58:38.617Z,101700.38
2022-08-10T15:01:06.683Z,101696.34
2022-08-10T15:04:02.337Z,101683.84
2022-08-10T15:06:30.366Z,101691.75
2022-08-10T15:09:12.676Z,101696.09
2022-08-10T15:12:13.697Z,101694.19
2022-08-10T15:14:43.469Z,101686.22
2022-08-10T15:17:13.691Z,101682.66
2022-08-10T15:20:02.957Z,101676.94
2022-08-10T15:22:37.920Z,101683.41
2022-08-10T15:25:19.195Z,101683.31
2022-08-10T15:27:53.417Z,101666.78
2022-08-10T15:30:27.034Z,101675.34
2022-08-10T15:33:21.701Z,101680.56
2022-08-10T15:36:24.978Z,101675.03
2022-08-10T15:40:21.148Z,101673.97
2022-08-10T15:42:19.494Z,101675.94
2022-08-10T15:44:49.891Z,101684.72
2022-08-10T15:48:00.534Z,101674.22
2022-08-10T15:50:39.753Z,101673.97
2022-08-10T15:53:16.202Z,101675.09
2022-08-10T15:55:54.636Z,101672.41
2022-08-10T15:58:30.170Z,101665.94
2022-08-10T16:02:04.418Z,101667.72
2022-08-10T16:04:31.660Z,101672.22
2022-08-10T16:07:07.904Z,101669.91
2022-08-10T16:10:24.211Z,101660.09
2022-08-10T16:12:40.590Z,101670.03
2022-08-10T16:15:12.596Z,101656.13
2022-08-10T16:17:56.429Z,101655.84
2022-08-10T16:20:28.290Z,101664.03
2022-08-10T16:23:01.453Z,101666.09
2022-08-10T16:25:51.273Z,101652.72
2022-08-10T16:28:23.428Z,101664.19
2022-08-10T16:30:54.040Z,101657.09
2022-08-10T16:33:54.287Z,101657.25
2022-08-10T16:36:17.508Z,101657.88
2022-08-10T16:38:47.468Z,101649.28
2022-08-10T16:42:04.250Z,101659.88
2022-08-10T16:44:04.108Z,101639.56
2022-08-10T16:46:31.979Z,101647.94
2022-08-10T16:48:59.973Z,101637.91
2022-08-10T16:51:27.203Z,101636.84
2022-08-10T16:53:55.132Z,101639.19
2022-08-10T16:56:49.360Z,101652.13
2022-08-10T16:59:20.619Z,101629.09
2022-08-10T17:01:51.323Z,101638.66
2022-08-10T17:04:22.451Z,101620.13
2022-08-10T17:06:57.096Z,101622.50
2022-08-10T17:09:33.199Z,101641.25
2022-08-10T17:12:10.730Z,101633.03
2022-08-10T17:14:39.253Z,101642.00
2022-08-10T17:17:11.555Z,101640.47
2022-08-10T17:19:44.803Z,101635.31
2022-08-10T17:22:16.345Z,101634.88
2022-08-10T17:24:51.195Z,101628.75
2022-08-10T17:28:05.004Z,101614.13
2022-08-10T17:30:15.928Z,101631.16
2022-08-10T17:33:12.332Z,101640.16
2022-08-10T17:35:40.488Z,101625.94
2022-08-10T17:38:24.842Z,101614.72
2022-08-10T17:41:04.104Z,101622.34
2022-08-10T17:43:58.304Z,101630.09
2022-08-10T17:46:25.105Z,101623.78
2022-08-10T17:48:53.447Z,101633.16
2022-08-10T17:51:21.524Z,101644.41
2022-08-10T17:53:51.216Z,101629.69
2022-08-10T17:56:21.047Z,101633.50
2022-08-10T17:59:04.582Z,101641.69
2022-08-10T18:01:41.643Z,101620.94
2022-08-10T18:04:22.334Z,101624.97
2022-08-10T18:06:54.633Z,101628.16
2022-08-10T18:09:51.923Z,101634.28
2022-08-10T18:12:38.212Z,101634.06
2022-08-10T18:15:13.227Z,101615.75
2022-08-10T18:17:43.411Z,101626.78
2022-08-10T18:20:11.628Z,101623.25
2022-08-10T18:22:44.069Z,101630.94
2022-08-10T18:25:18.136Z,101637.56
2022-08-10T18:28:01.523Z,101644.13
2022-08-10T18:30:36.394Z,101634.44
2022-08-10T18:33:09.196Z,101630.53
2022-08-10T18:35:37.117Z,101639.25
2022-08-10T18:38:05.178Z,101635.78
2022-08-10T18:40:36.095Z,101635.81
2022-08-10T18:44:02.920Z,101646.13
2022-08-10T18:45:56.894Z,101648.59
2022-08-10T18:48:34.183Z,101646.97
2022-08-10T18:51:06.063Z,101656.69
2022-08-10T18:53:50.638Z,101645.59
2022-08-10T18:56:40.507Z,101647.88
2022-08-10T18:59:28.341Z,101648.47
2022-08-10T19:02:19.338Z,101655.31
2022-08-10T19:05:04.345Z,101649.78
2022-08-10T19:07:48.869Z,101653.06
2022-08-10T19:10:36.754Z,101652.44
2022-08-10T19:13:29.517Z,101661.50
2022-08-10T19:16:17.677Z,101655.00
2022-08-10T19:19:22.940Z,101649.72
2022-08-10T19:22:02.907Z,101655.53
2022-08-10T19:24:44.728Z,101657.66
2022-08-10T19:27:35.271Z,101657.41
2022-08-10T19:30:13.302Z,101657.78
2022-08-10T19:32:52.163Z,101667.97
2022-08-10T19:36:03.021Z,101673.34
2022-08-10T19:39:03.259Z,101666.94
2022-08-10T19:41:44.994Z,101665.69
2022-08-10T19:44:41.791Z,101662.84
2022-08-10T19:47:32.165Z,101667.63
2022-08-10T19:50:06.638Z,101667.44
2022-08-10T19:52:43.173Z,101673.16
2022-08-10T19:55:31.560Z,101676.25
2022-08-10T19:58:22.313Z,101673.03
2022-08-10T20:01:07.453Z,101661.69
2022-08-10T20:03:41.628Z,101654.09
2022-08-10T20:06:19.198Z,101665.81
2022-08-10T20:09:02.853Z,101663.13
2022-08-10T20:11:45.899Z,101663.53
2022-08-10T20:14:21.441Z,101669.34
2022-08-10T20:16:48.844Z,101658.41
2022-08-10T20:19:53.154Z,101664.31
2022-08-10T20:22:18.395Z,101661.78
2022-08-10T20:25:02.844Z,101660.97
2022-08-10T20:27:59.079Z,101650.88
2022-08-10T20:30:23.627Z,101662.16
2022-08-10T20:32:57.748Z,101664.28
2022-08-10T20:36:03.082Z,101645.19
2022-08-10T20:38:35.566Z,101655.94
2022-08-10T20:41:46.936Z,101660.47
2022-08-10T20:44:34.746Z,101651.91
2022-08-10T20:47:20.077Z,101645.66
2022-08-10T20:50:09.340Z,101655.81
2022-08-10T20:52:36.668Z,101658.66
2022-08-10T20:55:10.929Z,101667.72
2022-08-10T20:58:22.519Z,101671.16
2022-08-10T21:01:13.644Z,101668.31
2022-08-10T21:04:11.282Z,101669.88
2022-08-10T21:07:00.135Z,101669.25
2022-08-10T21:09:39.483Z,101673.13
2022-08-10T21:12:44.316Z,101667.16
2022-08-10T21:15:32.623Z,101669.88
2022-08-10T21:18:43.863Z,101665.72
2022-08-10T21:21:56.947Z,101672.78
2022-08-10T21:24:32.162Z,101666.72
2022-08-10T21:27:08.438Z,101664.38
2022-08-10T21:30:06.612Z,101660.91
2022-08-10T21:32:48.181Z,101672.63
2022-08-10T21:35:20.059Z,101663.84
2022-08-10T21:38:19.503Z,101669.41
2022-08-10T21:41:28.022Z,101660.66
2022-08-10T21:44:49.433Z,101669.88
2022-08-10T21:48:07.078Z,101658.34
2022-08-10T21:50:52.922Z,101667.47
2022-08-10T21:54:07.148Z,101665.78
2022-08-10T21:57:02.784Z,101665.00
2022-08-10T22:00:04.391Z,101664.22
2022-08-10T22:02:52.183Z,101667.88
2022-08-10T22:05:47.161Z,101658.97
2022-08-10T22:08:44.492Z,101662.53
2022-08-10T22:11:37.724Z,101668.97
2022-08-10T22:14:25.596Z,101669.03
2022-08-10T22:18:03.640Z,101663.88
2022-08-10T22:20:29.463Z,101662.09
2022-08-10T22:23:40.595Z,101661.44
2022-08-10T22:26:37.438Z,101661.66
2022-08-10T22:29:42.560Z,101648.63
2022-08-10T22:32:56.279Z,101656.38
2022-08-10T22:35:50.321Z,101654.81
2022-08-10T22:39:13.997Z,101650.41
2022-08-10T22:42:59.127Z,101653.28
2022-08-10T22:45:42.847Z,101643.91
2022-08-10T22:48:28.329Z,101644.78
2022-08-10T22:51:04.838Z,101654.41
2022-08-10T22:54:01.800Z,101643.88
2022-08-10T22:56:47.151Z,101650.25
2022-08-10T22:59:27.002Z,101648.50
2022-08-10T23:02:09.418Z,101644.22
2022-08-10T23:04:45.022Z,101646.88
2022-08-10T23:07:17.869Z,101652.06
2022-08-10T23:10:09.282Z,101644.28
2022-08-10T23:13:23.501Z,101644.34
2022-08-10T23:16:33.195Z,101646.97
2022-08-10T23:19:10.874Z,101653.34
2022-08-10T23:22:03.720Z,101650.84
2022-08-10T23:24:42.947Z,101640.34
2022-08-10T23:27:37.306Z,101643.03
2022-08-10T23:30:09.455Z,101645.72
2022-08-10T23:32:42.339Z,101643.91
2022-08-10T23:36:31.841Z,101642.16
2022-08-10T23:38:03.362Z,101636.09
2022-08-10T23:40:30.743Z,101631.59
2022-08-10T23:42:58.455Z,101637.84
2022-08-10T23:45:27.768Z,101637.91
2022-08-10T23:48:01.121Z,101633.50
2022-08-10T23:50:29.458Z,101637.16
2022-08-10T23:53:01.326Z,101633.81
2022-08-10T23:55:49.121Z,101636.53
2022-08-10T23:58:33.494Z,101637.47
